sensor_id;sensor_type;location;lat;lon;timestamp;P1;durP1;ratioP1;P2;durP2;ratioP2
57295;SDS011;43146;50.976;18.216;2023-03-23T00:01:14;16.40;;;8.40;;
57295;SDS011;43146;50.976;18.216;2023-03-23T00:03:50;17.50;;;8.40;;
57295;SDS011;43146;50.976;18.216;2023-03-23T00:06:18;17.70;;;8.40;;
57295;SDS011;43146;50.976;18.216;2023-03-23T00:08:47;19.70;;;9.40;;
57295;SDS011;43146;50.976;18.216;2023-03-23T00:11:15;27.00;;;12.70;;
57295;SDS011;43146;50.976;18.216;2023-03-23T00:13:44;20.00;;;10.10;;
57295;SDS011;43146;50.976;18.216;2023-03-23T00:16:11;23.60;;;10.60;;
57295;SDS011;43146;50.976;18.216;2023-03-23T00:18:54;18.60;;;8.60;;
57295;SDS011;43146;50.976;18.216;2023-03-23T00:21:24;20.40;;;8.40;;
57295;SDS011;43146;50.976;18.216;2023-03-23T00:23:59;19.10;;;9.60;;
57295;SDS011;43146;50.976;18.216;2023-03-23T00:26:27;19.20;;;8.10;;
57295;SDS011;43146;50.976;18.216;2023-03-23T00:28:55;22.00;;;9.30;;
57295;SDS011;43146;50.976;18.216;2023-03-23T00:31:21;17.70;;;8.50;;
57295;SDS011;43146;50.976;18.216;2023-03-23T00:33:47;18.30;;;8.70;;
57295;SDS011;43146;50.976;18.216;2023-03-23T00:36:13;20.00;;;8.90;;
57295;SDS011;43146;50.976;18.216;2023-03-23T00:38:40;21.90;;;8.80;;
57295;SDS011;43146;50.976;18.216;2023-03-23T00:41:09;20.20;;;9.70;;
57295;SDS011;43146;50.976;18.216;2023-03-23T00:43:36;19.20;;;8.70;;
57295;SDS011;43146;50.976;18.216;2023-03-23T00:46:02;17.50;;;7.90;;
57295;SDS011;43146;50.976;18.216;2023-03-23T00:48:34;17.10;;;8.40;;
57295;SDS011;43146;50.976;18.216;2023-03-23T00:51:01;18.10;;;8.20;;
57295;SDS011;43146;50.976;18.216;2023-03-23T00:53:32;16.00;;;7.60;;
57295;SDS011;43146;50.976;18.216;2023-03-23T00:55:58;17.30;;;7.80;;
57295;SDS011;43146;50.976;18.216;2023-03-23T00:58:24;20.20;;;8.50;;
57295;SDS011;43146;50.976;18.216;2023-03-23T01:00:50;17.30;;;7.80;;
57295;SDS011;43146;50.976;18.216;2023-03-23T01:03:16;17.40;;;7.80;;
57295;SDS011;43146;50.976;18.216;2023-03-23T01:05:43;16.10;;;7.80;;
57295;SDS011;43146;50.976;18.216;2023-03-23T01:08:12;20.10;;;8.70;;
57295;SDS011;43146;50.976;18.216;2023-03-23T01:10:39;17.10;;;8.20;;
57295;SDS011;43146;50.976;18.216;2023-03-23T01:13:06;17.50;;;8.70;;
57295;SDS011;43146;50.976;18.216;2023-03-23T01:15:32;25.10;;;9.60;;
57295;SDS011;43146;50.976;18.216;2023-03-23T01:17:58;27.70;;;12.40;;
57295;SDS011;43146;50.976;18.216;2023-03-23T01:20:25;130.90;;;63.80;;
57295;SDS011;43146;50.976;18.216;2023-03-23T01:22:54;207.50;;;115.40;;
57295;SDS011;43146;50.976;18.216;2023-03-23T01:25:32;65.40;;;51.20;;
57295;SDS011;43146;50.976;18.216;2023-03-23T01:28:00;18.10;;;8.50;;
57295;SDS011;43146;50.976;18.216;2023-03-23T01:30:27;20.30;;;9.00;;
57295;SDS011;43146;50.976;18.216;2023-03-23T01:32:53;28.60;;;12.10;;
57295;SDS011;43146;50.976;18.216;2023-03-23T01:35:19;16.80;;;9.30;;
57295;SDS011;43146;50.976;18.216;2023-03-23T01:37:45;18.80;;;10.60;;
57295;SDS011;43146;50.976;18.216;2023-03-23T01:40:13;45.30;;;34.80;;
57295;SDS011;43146;50.976;18.216;2023-03-23T01:42:40;30.80;;;20.20;;
57295;SDS011;43146;50.976;18.216;2023-03-23T01:47:45;25.10;;;9.10;;
57295;SDS011;43146;50.976;18.216;2023-03-23T01:50:16;19.00;;;8.70;;
57295;SDS011;43146;50.976;18.216;2023-03-23T01:52:43;19.30;;;10.10;;
57295;SDS011;43146;50.976;18.216;2023-03-23T01:55:09;17.10;;;8.40;;
57295;SDS011;43146;50.976;18.216;2023-03-23T01:57:35;21.50;;;9.00;;
57295;SDS011;43146;50.976;18.216;2023-03-23T02:00:03;19.30;;;9.00;;
57295;SDS011;43146;50.976;18.216;2023-03-23T02:02:40;22.50;;;10.80;;
57295;SDS011;43146;50.976;18.216;2023-03-23T02:05:12;20.60;;;9.80;;
57295;SDS011;43146;50.976;18.216;2023-03-23T02:07:40;20.60;;;10.40;;
57295;SDS011;43146;50.976;18.216;2023-03-23T02:10:06;21.00;;;10.40;;
57295;SDS011;43146;50.976;18.216;2023-03-23T02:12:32;18.10;;;9.10;;
57295;SDS011;43146;50.976;18.216;2023-03-23T02:14:58;18.30;;;9.20;;
57295;SDS011;43146;50.976;18.216;2023-03-23T02:41:42;16.60;;;8.60;;
57295;SDS011;43146;50.976;18.216;2023-03-23T02:44:13;20.20;;;9.70;;
57295;SDS011;43146;50.976;18.216;2023-03-23T02:46:40;19.10;;;9.90;;
57295;SDS011;43146;50.976;18.216;2023-03-23T02:49:07;23.10;;;11.70;;
57295;SDS011;43146;50.976;18.216;2023-03-23T02:51:33;25.50;;;15.20;;
57295;SDS011;43146;50.976;18.216;2023-03-23T02:54:00;26.90;;;14.20;;
57295;SDS011;43146;50.976;18.216;2023-03-23T02:56:26;20.90;;;11.00;;
57295;SDS011;43146;50.976;18.216;2023-03-23T02:58:53;39.00;;;24.10;;
57295;SDS011;43146;50.976;18.216;2023-03-23T03:03:51;72.00;;;41.90;;
57295;SDS011;43146;50.976;18.216;2023-03-23T03:09:27;110.00;;;70.00;;
57295;SDS011;43146;50.976;18.216;2023-03-23T03:11:58;35.10;;;22.10;;
57295;SDS011;43146;50.976;18.216;2023-03-23T03:14:34;77.80;;;44.80;;
57295;SDS011;43146;50.976;18.216;2023-03-23T03:17:06;257.60;;;139.40;;
57295;SDS011;43146;50.976;18.216;2023-03-23T03:19:56;18.90;;;9.70;;
57295;SDS011;43146;50.976;18.216;2023-03-23T03:22:24;26.90;;;12.00;;
57295;SDS011;43146;50.976;18.216;2023-03-23T03:24:55;19.50;;;9.30;;
57295;SDS011;43146;50.976;18.216;2023-03-23T03:27:22;21.00;;;9.70;;
57295;SDS011;43146;50.976;18.216;2023-03-23T03:29:50;19.50;;;10.60;;
57295;SDS011;43146;50.976;18.216;2023-03-23T03:32:20;19.10;;;10.20;;
57295;SDS011;43146;50.976;18.216;2023-03-23T03:34:48;29.20;;;16.10;;
57295;SDS011;43146;50.976;18.216;2023-03-23T03:37:16;18.60;;;9.20;;
57295;SDS011;43146;50.976;18.216;2023-03-23T03:39:42;17.90;;;9.90;;
57295;SDS011;43146;50.976;18.216;2023-03-23T03:42:07;17.00;;;9.10;;
57295;SDS011;43146;50.976;18.216;2023-03-23T03:44:34;30.80;;;14.90;;
57295;SDS011;43146;50.976;18.216;2023-03-23T03:46:59;20.60;;;10.20;;
57295;SDS011;43146;50.976;18.216;2023-03-23T03:49:25;19.10;;;10.30;;
57295;SDS011;43146;50.976;18.216;2023-03-23T03:51:52;20.50;;;10.50;;
57295;SDS011;43146;50.976;18.216;2023-03-23T03:54:17;18.80;;;9.60;;
57295;SDS011;43146;50.976;18.216;2023-03-23T03:56:43;20.40;;;10.40;;
57295;SDS011;43146;50.976;18.216;2023-03-23T03:59:11;55.70;;;28.10;;
57295;SDS011;43146;50.976;18.216;2023-03-23T04:01:38;23.20;;;12.20;;
57295;SDS011;43146;50.976;18.216;2023-03-23T04:04:04;21.80;;;11.60;;
57295;SDS011;43146;50.976;18.216;2023-03-23T04:06:32;52.60;;;35.30;;
57295;SDS011;43146;50.976;18.216;2023-03-23T04:09:02;148.90;;;79.20;;
57295;SDS011;43146;50.976;18.216;2023-03-23T04:11:31;253.90;;;133.80;;
57295;SDS011;43146;50.976;18.216;2023-03-23T04:13:57;129.40;;;74.90;;
57295;SDS011;43146;50.976;18.216;2023-03-23T04:16:23;99.90;;;58.70;;
57295;SDS011;43146;50.976;18.216;2023-03-23T04:18:49;104.50;;;59.10;;
57295;SDS011;43146;50.976;18.216;2023-03-23T04:21:15;83.00;;;51.30;;
57295;SDS011;43146;50.976;18.216;2023-03-23T04:23:41;68.10;;;43.40;;
57295;SDS011;43146;50.976;18.216;2023-03-23T04:26:07;80.10;;;52.80;;
57295;SDS011;43146;50.976;18.216;2023-03-23T04:28:33;34.90;;;22.00;;
57295;SDS011;43146;50.976;18.216;2023-03-23T04:30:59;42.70;;;28.20;;
57295;SDS011;43146;50.976;18.216;2023-03-23T04:33:26;33.20;;;17.60;;
57295;SDS011;43146;50.976;18.216;2023-03-23T04:35:54;28.90;;;14.60;;
57295;SDS011;43146;50.976;18.216;2023-03-23T04:38:22;25.50;;;13.10;;
57295;SDS011;43146;50.976;18.216;2023-03-23T04:40:49;22.00;;;12.90;;
57295;SDS011;43146;50.976;18.216;2023-03-23T04:43:20;23.40;;;12.30;;
57295;SDS011;43146;50.976;18.216;2023-03-23T04:45:54;24.50;;;12.70;;
57295;SDS011;43146;50.976;18.216;2023-03-23T04:48:25;21.00;;;11.60;;
57295;SDS011;43146;50.976;18.216;2023-03-23T04:50:52;21.80;;;12.80;;
57295;SDS011;43146;50.976;18.216;2023-03-23T04:53:18;22.90;;;12.10;;
57295;SDS011;43146;50.976;18.216;2023-03-23T04:55:44;22.80;;;11.40;;
57295;SDS011;43146;50.976;18.216;2023-03-23T04:58:10;23.40;;;12.00;;
57295;SDS011;43146;50.976;18.216;2023-03-23T05:00:40;22.10;;;12.20;;
57295;SDS011;43146;50.976;18.216;2023-03-23T05:03:09;44.10;;;26.00;;
57295;SDS011;43146;50.976;18.216;2023-03-23T05:05:36;39.40;;;25.20;;
57295;SDS011;43146;50.976;18.216;2023-03-23T05:08:02;44.70;;;23.00;;
57295;SDS011;43146;50.976;18.216;2023-03-23T05:10:28;128.80;;;77.90;;
57295;SDS011;43146;50.976;18.216;2023-03-23T05:12:54;48.60;;;28.30;;
57295;SDS011;43146;50.976;18.216;2023-03-23T05:15:20;87.00;;;53.90;;
57295;SDS011;43146;50.976;18.216;2023-03-23T05:17:47;66.20;;;44.70;;
57295;SDS011;43146;50.976;18.216;2023-03-23T05:20:15;29.70;;;17.40;;
57295;SDS011;43146;50.976;18.216;2023-03-23T05:22:45;18.90;;;11.10;;
57295;SDS011;43146;50.976;18.216;2023-03-23T05:25:15;24.10;;;13.80;;
57295;SDS011;43146;50.976;18.216;2023-03-23T05:27:44;31.20;;;21.30;;
57295;SDS011;43146;50.976;18.216;2023-03-23T05:30:14;22.60;;;14.40;;
57295;SDS011;43146;50.976;18.216;2023-03-23T05:32:42;23.20;;;11.60;;
57295;SDS011;43146;50.976;18.216;2023-03-23T05:35:10;25.00;;;16.70;;
57295;SDS011;43146;50.976;18.216;2023-03-23T05:37:36;18.60;;;10.40;;
57295;SDS011;43146;50.976;18.216;2023-03-23T05:40:02;23.10;;;13.40;;
57295;SDS011;43146;50.976;18.216;2023-03-23T05:42:32;27.10;;;14.00;;
57295;SDS011;43146;50.976;18.216;2023-03-23T05:45:00;22.20;;;13.20;;
57295;SDS011;43146;50.976;18.216;2023-03-23T05:47:26;21.00;;;12.80;;
57295;SDS011;43146;50.976;18.216;2023-03-23T05:49:52;21.10;;;11.50;;
57295;SDS011;43146;50.976;18.216;2023-03-23T05:52:18;18.30;;;10.60;;
57295;SDS011;43146;50.976;18.216;2023-03-23T05:54:45;19.00;;;10.60;;
57295;SDS011;43146;50.976;18.216;2023-03-23T05:57:11;22.00;;;11.20;;
57295;SDS011;43146;50.976;18.216;2023-03-23T05:59:37;21.10;;;11.30;;
57295;SDS011;43146;50.976;18.216;2023-03-23T06:02:03;18.50;;;10.90;;
57295;SDS011;43146;50.976;18.216;2023-03-23T06:04:29;19.70;;;10.50;;
57295;SDS011;43146;50.976;18.216;2023-03-23T06:06:55;19.30;;;12.00;;
57295;SDS011;43146;50.976;18.216;2023-03-23T06:09:21;20.10;;;11.90;;
57295;SDS011;43146;50.976;18.216;2023-03-23T06:11:49;18.60;;;10.40;;
57295;SDS011;43146;50.976;18.216;2023-03-23T06:14:15;18.60;;;9.80;;
57295;SDS011;43146;50.976;18.216;2023-03-23T06:16:42;19.50;;;9.80;;
57295;SDS011;43146;50.976;18.216;2023-03-23T06:19:08;17.30;;;9.60;;
57295;SDS011;43146;50.976;18.216;2023-03-23T06:21:33;20.30;;;11.30;;
57295;SDS011;43146;50.976;18.216;2023-03-23T06:23:59;16.50;;;9.80;;
57295;SDS011;43146;50.976;18.216;2023-03-23T06:26:27;17.30;;;9.50;;
57295;SDS011;43146;50.976;18.216;2023-03-23T06:28:56;23.20;;;12.90;;
57295;SDS011;43146;50.976;18.216;2023-03-23T06:31:23;25.00;;;13.80;;
57295;SDS011;43146;50.976;18.216;2023-03-23T06:33:49;22.40;;;9.50;;
57295;SDS011;43146;50.976;18.216;2023-03-23T06:36:15;23.00;;;11.90;;
57295;SDS011;43146;50.976;18.216;2023-03-23T06:38:42;22.10;;;11.50;;
57295;SDS011;43146;50.976;18.216;2023-03-23T06:41:08;19.40;;;10.70;;
57295;SDS011;43146;50.976;18.216;2023-03-23T06:43:34;18.00;;;8.70;;
57295;SDS011;43146;50.976;18.216;2023-03-23T06:46:04;18.40;;;9.90;;
57295;SDS011;43146;50.976;18.216;2023-03-23T06:48:30;20.00;;;11.60;;
57295;SDS011;43146;50.976;18.216;2023-03-23T06:50:57;21.00;;;12.20;;
57295;SDS011;43146;50.976;18.216;2023-03-23T06:53:22;22.20;;;12.40;;
57295;SDS011;43146;50.976;18.216;2023-03-23T06:55:48;32.90;;;23.10;;
57295;SDS011;43146;50.976;18.216;2023-03-23T06:58:14;28.80;;;19.50;;
57295;SDS011;43146;50.976;18.216;2023-03-23T07:00:39;25.00;;;14.30;;
57295;SDS011;43146;50.976;18.216;2023-03-23T07:03:05;27.70;;;15.00;;
57295;SDS011;43146;50.976;18.216;2023-03-23T07:05:32;27.40;;;15.70;;
57295;SDS011;43146;50.976;18.216;2023-03-23T07:07:59;24.20;;;14.70;;
57295;SDS011;43146;50.976;18.216;2023-03-23T07:10:25;18.00;;;11.30;;
57295;SDS011;43146;50.976;18.216;2023-03-23T07:12:51;16.00;;;9.20;;
57295;SDS011;43146;50.976;18.216;2023-03-23T07:15:16;18.20;;;10.40;;
57295;SDS011;43146;50.976;18.216;2023-03-23T07:17:42;19.30;;;12.00;;
57295;SDS011;43146;50.976;18.216;2023-03-23T07:20:08;17.20;;;9.20;;
57295;SDS011;43146;50.976;18.216;2023-03-23T07:22:35;19.80;;;13.50;;
57295;SDS011;43146;50.976;18.216;2023-03-23T07:25:01;18.90;;;10.50;;
57295;SDS011;43146;50.976;18.216;2023-03-23T07:27:26;34.50;;;21.30;;
57295;SDS011;43146;50.976;18.216;2023-03-23T07:29:52;88.60;;;57.00;;
57295;SDS011;43146;50.976;18.216;2023-03-23T07:32:18;168.10;;;102.10;;
57295;SDS011;43146;50.976;18.216;2023-03-23T07:34:44;88.90;;;50.40;;
57295;SDS011;43146;50.976;18.216;2023-03-23T07:37:09;31.90;;;19.80;;
57295;SDS011;43146;50.976;18.216;2023-03-23T07:39:36;53.90;;;36.00;;
57295;SDS011;43146;50.976;18.216;2023-03-23T07:42:02;57.30;;;31.50;;
57295;SDS011;43146;50.976;18.216;2023-03-23T07:44:28;36.80;;;24.20;;
57295;SDS011;43146;50.976;18.216;2023-03-23T07:46:54;21.70;;;12.50;;
57295;SDS011;43146;50.976;18.216;2023-03-23T07:49:20;21.20;;;12.40;;
57295;SDS011;43146;50.976;18.216;2023-03-23T07:51:46;15.50;;;8.70;;
57295;SDS011;43146;50.976;18.216;2023-03-23T07:54:12;22.50;;;13.40;;
57295;SDS011;43146;50.976;18.216;2023-03-23T07:56:39;22.30;;;12.90;;
57295;SDS011;43146;50.976;18.216;2023-03-23T07:59:05;24.00;;;13.30;;
57295;SDS011;43146;50.976;18.216;2023-03-23T08:01:31;20.60;;;10.50;;
57295;SDS011;43146;50.976;18.216;2023-03-23T08:03:58;17.90;;;8.80;;
57295;SDS011;43146;50.976;18.216;2023-03-23T08:06:25;21.80;;;10.90;;
57295;SDS011;43146;50.976;18.216;2023-03-23T08:08:51;17.70;;;9.10;;
57295;SDS011;43146;50.976;18.216;2023-03-23T08:11:18;14.80;;;7.80;;
57295;SDS011;43146;50.976;18.216;2023-03-23T08:13:44;17.50;;;9.00;;
57295;SDS011;43146;50.976;18.216;2023-03-23T08:16:10;20.50;;;9.80;;
57295;SDS011;43146;50.976;18.216;2023-03-23T08:18:37;14.40;;;7.20;;
57295;SDS011;43146;50.976;18.216;2023-03-23T08:21:04;17.20;;;9.10;;
57295;SDS011;43146;50.976;18.216;2023-03-23T08:23:32;18.50;;;11.50;;
57295;SDS011;43146;50.976;18.216;2023-03-23T08:25:58;15.30;;;8.60;;
57295;SDS011;43146;50.976;18.216;2023-03-23T08:28:25;18.10;;;8.60;;
57295;SDS011;43146;50.976;18.216;2023-03-23T08:30:51;15.20;;;7.20;;
57295;SDS011;43146;50.976;18.216;2023-03-23T08:33:17;17.40;;;8.10;;
57295;SDS011;43146;50.976;18.216;2023-03-23T08:35:43;31.70;;;17.90;;
57295;SDS011;43146;50.976;18.216;2023-03-23T08:38:10;18.60;;;10.20;;
57295;SDS011;43146;50.976;18.216;2023-03-23T08:40:37;25.80;;;14.00;;
57295;SDS011;43146;50.976;18.216;2023-03-23T08:43:04;19.70;;;10.10;;
57295;SDS011;43146;50.976;18.216;2023-03-23T08:45:31;15.20;;;7.30;;
57295;SDS011;43146;50.976;18.216;2023-03-23T08:47:57;15.40;;;7.80;;
57295;SDS011;43146;50.976;18.216;2023-03-23T08:50:25;13.80;;;6.90;;
57295;SDS011;43146;50.976;18.216;2023-03-23T08:52:52;13.90;;;6.10;;
57295;SDS011;43146;50.976;18.216;2023-03-23T08:55:19;15.50;;;7.80;;
57295;SDS011;43146;50.976;18.216;2023-03-23T08:57:46;16.70;;;7.90;;
57295;SDS011;43146;50.976;18.216;2023-03-23T09:00:13;11.50;;;5.30;;
57295;SDS011;43146;50.976;18.216;2023-03-23T09:02:47;12.00;;;5.80;;
57295;SDS011;43146;50.976;18.216;2023-03-23T09:05:15;26.00;;;13.20;;
57295;SDS011;43146;50.976;18.216;2023-03-23T09:07:43;19.80;;;12.00;;
57295;SDS011;43146;50.976;18.216;2023-03-23T09:10:11;13.00;;;6.40;;
57295;SDS011;43146;50.976;18.216;2023-03-23T09:12:39;22.60;;;10.20;;
57295;SDS011;43146;50.976;18.216;2023-03-23T09:15:06;17.60;;;8.20;;
57295;SDS011;43146;50.976;18.216;2023-03-23T09:17:54;34.90;;;22.50;;
57295;SDS011;43146;50.976;18.216;2023-03-23T09:20:23;14.10;;;6.60;;
57295;SDS011;43146;50.976;18.216;2023-03-23T09:22:50;16.30;;;8.80;;
57295;SDS011;43146;50.976;18.216;2023-03-23T09:25:18;14.60;;;7.90;;
57295;SDS011;43146;50.976;18.216;2023-03-23T09:27:50;16.60;;;8.50;;
57295;SDS011;43146;50.976;18.216;2023-03-23T09:30:19;21.40;;;12.30;;
57295;SDS011;43146;50.976;18.216;2023-03-23T09:32:46;17.30;;;9.80;;
57295;SDS011;43146;50.976;18.216;2023-03-23T09:35:13;11.80;;;6.00;;
57295;SDS011;43146;50.976;18.216;2023-03-23T09:37:42;15.90;;;8.60;;
57295;SDS011;43146;50.976;18.216;2023-03-23T09:40:16;25.30;;;13.80;;
57295;SDS011;43146;50.976;18.216;2023-03-23T09:48:26;11.30;;;4.60;;
57295;SDS011;43146;50.976;18.216;2023-03-23T09:51:00;13.30;;;7.10;;
57295;SDS011;43146;50.976;18.216;2023-03-23T09:53:38;11.50;;;4.30;;
57295;SDS011;43146;50.976;18.216;2023-03-23T09:56:13;9.70;;;3.50;;
57295;SDS011;43146;50.976;18.216;2023-03-23T10:01:32;9.20;;;3.40;;
57295;SDS011;43146;50.976;18.216;2023-03-23T10:04:24;8.40;;;3.30;;
57295;SDS011;43146;50.976;18.216;2023-03-23T10:07:09;8.00;;;2.90;;
57295;SDS011;43146;50.976;18.216;2023-03-23T10:09:41;8.70;;;3.00;;
57295;SDS011;43146;50.976;18.216;2023-03-23T10:18:04;7.90;;;2.80;;
57295;SDS011;43146;50.976;18.216;2023-03-23T10:20:43;8.50;;;3.20;;
57295;SDS011;43146;50.976;18.216;2023-03-23T10:26:47;8.00;;;2.80;;
57295;SDS011;43146;50.976;18.216;2023-03-23T10:29:31;7.90;;;2.50;;
57295;SDS011;43146;50.976;18.216;2023-03-23T10:32:03;8.80;;;3.10;;
57295;SDS011;43146;50.976;18.216;2023-03-23T10:34:52;8.00;;;2.80;;
57295;SDS011;43146;50.976;18.216;2023-03-23T10:37:32;7.60;;;2.50;;
57295;SDS011;43146;50.976;18.216;2023-03-23T10:40:02;5.80;;;2.40;;
57295;SDS011;43146;50.976;18.216;2023-03-23T10:42:35;8.10;;;2.60;;
57295;SDS011;43146;50.976;18.216;2023-03-23T10:45:15;7.80;;;1.90;;
57295;SDS011;43146;50.976;18.216;2023-03-23T10:47:46;6.90;;;2.20;;
57295;SDS011;43146;50.976;18.216;2023-03-23T10:50:18;6.50;;;2.10;;
57295;SDS011;43146;50.976;18.216;2023-03-23T10:52:48;5.50;;;2.20;;
57295;SDS011;43146;50.976;18.216;2023-03-23T10:55:17;6.10;;;2.40;;
57295;SDS011;43146;50.976;18.216;2023-03-23T10:57:57;12.10;;;3.80;;
57295;SDS011;43146;50.976;18.216;2023-03-23T11:00:31;4.30;;;1.80;;
57295;SDS011;43146;50.976;18.216;2023-03-23T11:03:04;9.50;;;3.60;;
57295;SDS011;43146;50.976;18.216;2023-03-23T11:05:37;6.10;;;2.10;;
57295;SDS011;43146;50.976;18.216;2023-03-23T11:08:10;4.50;;;1.90;;
57295;SDS011;43146;50.976;18.216;2023-03-23T11:10:42;6.60;;;2.10;;
57295;SDS011;43146;50.976;18.216;2023-03-23T11:13:15;5.00;;;1.90;;
57295;SDS011;43146;50.976;18.216;2023-03-23T11:15:43;4.10;;;1.70;;
57295;SDS011;43146;50.976;18.216;2023-03-23T11:18:18;7.20;;;2.30;;
57295;SDS011;43146;50.976;18.216;2023-03-23T11:20:45;6.90;;;2.40;;
57295;SDS011;43146;50.976;18.216;2023-03-23T11:23:18;4.70;;;2.00;;
57295;SDS011;43146;50.976;18.216;2023-03-23T11:25:55;5.60;;;1.90;;
57295;SDS011;43146;50.976;18.216;2023-03-23T11:28:22;7.10;;;2.00;;
57295;SDS011;43146;50.976;18.216;2023-03-23T11:31:07;5.70;;;2.10;;
57295;SDS011;43146;50.976;18.216;2023-03-23T11:33:48;7.60;;;2.00;;
57295;SDS011;43146;50.976;18.216;2023-03-23T11:36:14;9.10;;;2.20;;
57295;SDS011;43146;50.976;18.216;2023-03-23T11:38:40;4.40;;;2.00;;
57295;SDS011;43146;50.976;18.216;2023-03-23T11:41:09;4.30;;;1.80;;
57295;SDS011;43146;50.976;18.216;2023-03-23T11:43:39;5.20;;;1.90;;
57295;SDS011;43146;50.976;18.216;2023-03-23T11:49:04;5.60;;;2.00;;
57295;SDS011;43146;50.976;18.216;2023-03-23T11:51:45;5.50;;;1.80;;
57295;SDS011;43146;50.976;18.216;2023-03-23T11:54:37;2.60;;;1.40;;
57295;SDS011;43146;50.976;18.216;2023-03-23T11:57:09;5.80;;;1.90;;
57295;SDS011;43146;50.976;18.216;2023-03-23T11:59:37;5.50;;;1.90;;
57295;SDS011;43146;50.976;18.216;2023-03-23T12:13:05;7.30;;;1.80;;
57295;SDS011;43146;50.976;18.216;2023-03-23T12:15:57;7.40;;;2.00;;
57295;SDS011;43146;50.976;18.216;2023-03-23T12:21:33;3.70;;;1.70;;
57295;SDS011;43146;50.976;18.216;2023-03-23T12:24:22;6.40;;;2.00;;
57295;SDS011;43146;50.976;18.216;2023-03-23T12:27:19;6.70;;;2.10;;
57295;SDS011;43146;50.976;18.216;2023-03-23T12:32:35;6.00;;;2.30;;
57295;SDS011;43146;50.976;18.216;2023-03-23T12:40:37;7.20;;;2.30;;
57295;SDS011;43146;50.976;18.216;2023-03-23T12:43:13;6.70;;;2.40;;
57295;SDS011;43146;50.976;18.216;2023-03-23T12:48:28;5.30;;;2.00;;
57295;SDS011;43146;50.976;18.216;2023-03-23T12:51:08;6.90;;;2.30;;
57295;SDS011;43146;50.976;18.216;2023-03-23T12:57:17;5.20;;;1.90;;
57295;SDS011;43146;50.976;18.216;2023-03-23T12:59:59;6.80;;;2.10;;
57295;SDS011;43146;50.976;18.216;2023-03-23T13:05:40;7.40;;;2.10;;
57295;SDS011;43146;50.976;18.216;2023-03-23T13:08:16;6.70;;;2.30;;
57295;SDS011;43146;50.976;18.216;2023-03-23T13:10:48;6.60;;;2.10;;
57295;SDS011;43146;50.976;18.216;2023-03-23T13:13:25;8.00;;;2.20;;
57295;SDS011;43146;50.976;18.216;2023-03-23T13:16:11;6.20;;;2.10;;
57295;SDS011;43146;50.976;18.216;2023-03-23T13:21:58;9.00;;;2.30;;
57295;SDS011;43146;50.976;18.216;2023-03-23T13:24:41;10.10;;;3.40;;
57295;SDS011;43146;50.976;18.216;2023-03-23T13:27:13;5.30;;;1.80;;
57295;SDS011;43146;50.976;18.216;2023-03-23T13:29:43;9.20;;;3.30;;
57295;SDS011;43146;50.976;18.216;2023-03-23T13:32:17;8.10;;;2.90;;
57295;SDS011;43146;50.976;18.216;2023-03-23T13:34:45;6.70;;;2.30;;
57295;SDS011;43146;50.976;18.216;2023-03-23T13:37:20;7.70;;;2.30;;
57295;SDS011;43146;50.976;18.216;2023-03-23T13:44:53;6.40;;;2.10;;
57295;SDS011;43146;50.976;18.216;2023-03-23T13:49:51;5.40;;;1.70;;
57295;SDS011;43146;50.976;18.216;2023-03-23T13:58:26;7.10;;;2.20;;
57295;SDS011;43146;50.976;18.216;2023-03-23T14:06:07;5.70;;;2.10;;
57295;SDS011;43146;50.976;18.216;2023-03-23T14:08:40;6.00;;;2.50;;
57295;SDS011;43146;50.976;18.216;2023-03-23T14:11:11;5.00;;;1.70;;
57295;SDS011;43146;50.976;18.216;2023-03-23T14:16:49;7.90;;;2.00;;
57295;SDS011;43146;50.976;18.216;2023-03-23T14:19:29;5.90;;;1.90;;
57295;SDS011;43146;50.976;18.216;2023-03-23T14:21:58;4.50;;;1.90;;
57295;SDS011;43146;50.976;18.216;2023-03-23T14:24:26;8.40;;;2.00;;
57295;SDS011;43146;50.976;18.216;2023-03-23T14:27:01;6.70;;;2.10;;
57295;SDS011;43146;50.976;18.216;2023-03-23T14:29:41;8.40;;;2.20;;
57295;SDS011;43146;50.976;18.216;2023-03-23T14:32:07;7.10;;;2.40;;
57295;SDS011;43146;50.976;18.216;2023-03-23T14:34:37;6.80;;;2.30;;
57295;SDS011;43146;50.976;18.216;2023-03-23T14:37:03;15.10;;;7.40;;
57295;SDS011;43146;50.976;18.216;2023-03-23T14:39:30;27.50;;;12.60;;
57295;SDS011;43146;50.976;18.216;2023-03-23T14:42:09;15.20;;;6.10;;
57295;SDS011;43146;50.976;18.216;2023-03-23T14:44:39;12.20;;;4.10;;
57295;SDS011;43146;50.976;18.216;2023-03-23T14:47:09;7.20;;;2.30;;
57295;SDS011;43146;50.976;18.216;2023-03-23T14:49:42;11.00;;;3.10;;
57295;SDS011;43146;50.976;18.216;2023-03-23T14:52:10;10.00;;;2.90;;
57295;SDS011;43146;50.976;18.216;2023-03-23T14:54:37;8.00;;;2.90;;
57295;SDS011;43146;50.976;18.216;2023-03-23T14:57:17;26.00;;;6.70;;
57295;SDS011;43146;50.976;18.216;2023-03-23T14:59:46;17.90;;;4.30;;
57295;SDS011;43146;50.976;18.216;2023-03-23T15:02:14;20.50;;;5.60;;
57295;SDS011;43146;50.976;18.216;2023-03-23T15:04:44;140.20;;;31.70;;
57295;SDS011;43146;50.976;18.216;2023-03-23T15:07:11;24.10;;;7.30;;
57295;SDS011;43146;50.976;18.216;2023-03-23T15:09:39;10.10;;;3.60;;
57295;SDS011;43146;50.976;18.216;2023-03-23T15:12:09;15.70;;;5.80;;
57295;SDS011;43146;50.976;18.216;2023-03-23T15:14:47;69.80;;;16.80;;
57295;SDS011;43146;50.976;18.216;2023-03-23T15:17:18;41.80;;;11.80;;
57295;SDS011;43146;50.976;18.216;2023-03-23T15:19:46;16.20;;;5.00;;
57295;SDS011;43146;50.976;18.216;2023-03-23T15:22:17;23.00;;;6.50;;
57295;SDS011;43146;50.976;18.216;2023-03-23T15:30:47;25.80;;;7.70;;
57295;SDS011;43146;50.976;18.216;2023-03-23T15:33:14;19.50;;;5.20;;
57295;SDS011;43146;50.976;18.216;2023-03-23T15:35:44;7.70;;;2.80;;
57295;SDS011;43146;50.976;18.216;2023-03-23T15:40:49;9.30;;;3.90;;
57295;SDS011;43146;50.976;18.216;2023-03-23T15:51:11;12.20;;;5.10;;
57295;SDS011;43146;50.976;18.216;2023-03-23T15:53:38;12.70;;;5.20;;
57295;SDS011;43146;50.976;18.216;2023-03-23T15:56:05;11.50;;;4.90;;
57295;SDS011;43146;50.976;18.216;2023-03-23T15:58:33;15.30;;;6.50;;
57295;SDS011;43146;50.976;18.216;2023-03-23T16:01:23;14.10;;;5.40;;
57295;SDS011;43146;50.976;18.216;2023-03-23T16:03:58;13.20;;;4.90;;
57295;SDS011;43146;50.976;18.216;2023-03-23T16:06:27;10.00;;;4.00;;
57295;SDS011;43146;50.976;18.216;2023-03-23T16:08:55;14.10;;;7.00;;
57295;SDS011;43146;50.976;18.216;2023-03-23T16:11:22;10.90;;;4.20;;
57295;SDS011;43146;50.976;18.216;2023-03-23T16:13:50;10.70;;;5.00;;
57295;SDS011;43146;50.976;18.216;2023-03-23T16:16:37;13.00;;;5.90;;
57295;SDS011;43146;50.976;18.216;2023-03-23T16:19:03;52.10;;;32.00;;
57295;SDS011;43146;50.976;18.216;2023-03-23T16:21:30;100.10;;;61.30;;
57295;SDS011;43146;50.976;18.216;2023-03-23T16:23:56;77.50;;;51.90;;
57295;SDS011;43146;50.976;18.216;2023-03-23T16:26:23;28.10;;;18.70;;
57295;SDS011;43146;50.976;18.216;2023-03-23T16:28:49;52.60;;;30.70;;
57295;SDS011;43146;50.976;18.216;2023-03-23T16:31:15;50.40;;;26.30;;
57295;SDS011;43146;50.976;18.216;2023-03-23T16:33:40;38.90;;;21.30;;
57295;SDS011;43146;50.976;18.216;2023-03-23T16:36:09;74.40;;;37.90;;
57295;SDS011;43146;50.976;18.216;2023-03-23T16:38:36;195.10;;;92.80;;